Time;durP1;ratioP1;P1;durP2;ratioP2;P2;SDS_P1;SDS_P2;PMS_P1;PMS_P2;Temp;Humidity;BMP_temperature;BMP_pressure;BME280_temperature;BME280_humidity;BME280_pressure;Samples;Min_cycle;Max_cycle;Signal;HPM_P1;HPM_P2
2023/01/19 00:02:13;;;;;;;4.18;1.00;;;;;;;;;;4801943;29;20523;-76
2023/01/19 00:04:45;;;;;;;7.15;1.40;;;;;;;;;;4801267;29;20050;-76
2023/01/19 00:07:15;;;;;;;4.15;0.80;;;;;;;;;;4801652;29;20491;-75
2023/01/19 00:09:46;;;;;;;6.88;1.10;;;;;;;;;;4801984;29;20055;-75
2023/01/19 00:12:18;;;;;;;9.18;1.20;;;;;;;;;;4785363;29;20051;-75
2023/01/19 00:14:49;;;;;;;6.40;1.05;;;;;;;;;;4785726;29;20062;-76
2023/01/19 00:17:19;;;;;;;5.97;1.23;;;;;;;;;;4801045;29;20055;-77
2023/01/19 00:19:49;;;;;;;8.40;0.82;;;;;;;;;;4801397;29;20043;-77
2023/01/19 00:22:20;;;;;;;5.53;1.10;;;;;;;;;;4801153;29;20890;-77
2023/01/19 00:24:51;;;;;;;6.38;1.20;;;;;;;;;;4800423;29;20063;-78
2023/01/19 00:27:22;;;;;;;7.65;1.27;;;;;;;;;;4800206;29;20051;-76
2023/01/19 00:29:53;;;;;;;8.68;1.30;;;;;;;;;;4783971;29;20055;-77
2023/01/19 00:32:25;;;;;;;6.05;1.23;;;;;;;;;;4783613;29;20065;-77
2023/01/19 00:34:56;;;;;;;5.85;1.17;;;;;;;;;;4800124;29;20047;-76
2023/01/19 00:37:28;;;;;;;8.77;1.00;;;;;;;;;;4800321;29;20066;-74
2023/01/19 00:39:58;;;;;;;6.53;0.80;;;;;;;;;;4801446;29;20066;-78
2023/01/19 00:42:43;;;;;;;10.77;1.30;;;;;;;;;;4799674;29;20073;-74
2023/01/19 00:45:19;;;;;;;4.15;1.23;;;;;;;;;;4799251;29;20054;-76
2023/01/19 00:47:55;;;;;;;5.22;1.38;;;;;;;;;;4799717;29;20519;-76
2023/01/19 00:50:27;;;;;;;11.35;1.50;;;;;;;;;;4785043;29;20055;-76
2023/01/19 00:53:02;;;;;;;6.35;1.10;;;;;;;;;;4782398;30;20055;-77
2023/01/19 00:55:34;;;;;;;8.38;1.25;;;;;;;;;;4781512;29;20059;-77
2023/01/19 00:58:06;;;;;;;10.00;1.10;;;;;;;;;;4781293;29;20143;-75
2023/01/19 01:00:37;;;;;;;8.43;1.23;;;;;;;;;;4787269;29;20062;-76
2023/01/19 01:03:07;;;;;;;9.70;1.15;;;;;;;;;;4787068;29;20058;-78
2023/01/19 01:05:41;;;;;;;3.00;0.70;;;;;;;;;;4789595;29;20064;-75
2023/01/19 01:08:12;;;;;;;5.97;0.98;;;;;;;;;;4792390;29;20416;-75
2023/01/19 01:10:42;;;;;;;8.43;1.40;;;;;;;;;;4788963;29;20052;-77
2023/01/19 01:13:12;;;;;;;5.97;1.30;;;;;;;;;;4781487;30;20051;-76
2023/01/19 01:15:51;;;;;;;6.82;1.15;;;;;;;;;;4780081;30;20609;-75
2023/01/19 01:18:23;;;;;;;6.53;0.90;;;;;;;;;;4781327;30;20066;-75
2023/01/19 01:21:04;;;;;;;7.50;0.90;;;;;;;;;;4779829;30;20063;-76
2023/01/19 01:23:34;;;;;;;5.55;1.08;;;;;;;;;;4695068;29;2515810;-76
2023/01/19 01:26:05;;;;;;;5.85;1.00;;;;;;;;;;4781819;30;20059;-76
2023/01/19 01:29:04;;;;;;;4.15;0.70;;;;;;;;;;4781892;29;20153;-76
2023/01/19 01:31:35;;;;;;;6.25;1.00;;;;;;;;;;4781950;30;20055;-76
2023/01/19 01:34:06;;;;;;;6.07;1.17;;;;;;;;;;4782488;30;20500;-77
2023/01/19 01:36:36;;;;;;;5.90;0.80;;;;;;;;;;4781390;30;20134;-76
2023/01/19 01:39:07;;;;;;;9.32;1.10;;;;;;;;;;4782862;30;20051;-76
2023/01/19 01:41:37;;;;;;;8.18;1.85;;;;;;;;;;4782187;30;20428;-76
2023/01/19 01:44:54;;;;;;;11.18;1.35;;;;;;;;;;4781753;29;20542;-77
2023/01/19 01:47:46;;;;;;;7.00;1.00;;;;;;;;;;4761584;30;20067;-77
2023/01/19 01:50:21;;;;;;;10.95;1.23;;;;;;;;;;4781435;29;20519;-78
2023/01/19 01:53:05;;;;;;;7.13;1.08;;;;;;;;;;4781776;30;20051;-76
2023/01/19 01:55:42;;;;;;;5.20;0.98;;;;;;;;;;4782014;30;20055;-77
2023/01/19 01:58:15;;;;;;;8.13;1.30;;;;;;;;;;4782171;29;20492;-77
2023/01/19 02:03:36;;;;;;;6.15;1.10;;;;;;;;;;4781711;30;20047;-75
2023/01/19 02:06:08;;;;;;;5.50;0.70;;;;;;;;;;4780955;30;20059;-76
2023/01/19 02:14:26;;;;;;;4.97;1.00;;;;;;;;;;4781575;30;20845;-75
2023/01/19 02:16:59;;;;;;;7.60;1.45;;;;;;;;;;4781645;30;20047;-77
2023/01/19 02:19:41;;;;;;;7.13;0.85;;;;;;;;;;4780508;30;20073;-75
2023/01/19 02:22:24;;;;;;;7.97;1.00;;;;;;;;;;4781403;30;20059;-74
2023/01/19 02:24:55;;;;;;;6.25;0.77;;;;;;;;;;4781493;29;20063;-75
2023/01/19 02:27:26;;;;;;;5.10;0.90;;;;;;;;;;4781462;29;20072;-74
2023/01/19 02:29:59;;;;;;;6.05;0.80;;;;;;;;;;4781536;30;20082;-75
2023/01/19 02:32:29;;;;;;;7.25;1.80;;;;;;;;;;4781677;30;20423;-75
2023/01/19 02:35:01;;;;;;;5.97;0.90;;;;;;;;;;4781559;30;20507;-75
2023/01/19 02:37:36;;;;;;;5.80;1.10;;;;;;;;;;4781911;29;20056;-76
2023/01/19 02:40:18;;;;;;;7.78;0.90;;;;;;;;;;4781886;30;20499;-76
2023/01/19 02:42:51;;;;;;;8.88;1.60;;;;;;;;;;4779593;30;20526;-76
2023/01/19 02:45:22;;;;;;;3.95;0.85;;;;;;;;;;4780924;30;20055;-76
2023/01/19 02:47:53;;;;;;;3.13;1.05;;;;;;;;;;4782058;30;20523;-75
2023/01/19 02:50:36;;;;;;;6.28;1.20;;;;;;;;;;4780804;30;20519;-75
2023/01/19 02:53:46;;;;;;;5.72;1.40;;;;;;;;;;4781103;30;20051;-75
2023/01/19 02:56:27;;;;;;;3.28;1.10;;;;;;;;;;4774201;29;20067;-75
2023/01/19 02:59:02;;;;;;;10.60;1.30;;;;;;;;;;4781427;30;20051;-76
2023/01/19 03:01:57;;;;;;;6.68;1.17;;;;;;;;;;4781522;30;20062;-74
2023/01/19 03:04:38;;;;;;;6.70;1.30;;;;;;;;;;4781871;30;20073;-75
2023/01/19 03:07:28;;;;;;;7.07;1.45;;;;;;;;;;4781422;30;20055;-75
2023/01/19 03:10:36;;;;;;;5.03;1.00;;;;;;;;;;4783864;29;20055;-76
2023/01/19 03:13:06;;;;;;;5.68;0.90;;;;;;;;;;4784718;30;20482;-76
2023/01/19 03:15:57;;;;;;;8.57;1.00;;;;;;;;;;4784442;30;20059;-74
2023/01/19 03:18:31;;;;;;;9.48;1.00;;;;;;;;;;4784098;30;20063;-75
2023/01/19 03:21:05;;;;;;;5.88;0.70;;;;;;;;;;4784430;30;20527;-74
2023/01/19 03:23:38;;;;;;;5.07;1.05;;;;;;;;;;4784407;30;20059;-77
2023/01/19 03:26:14;;;;;;;4.90;1.00;;;;;;;;;;4784966;30;20062;-75
2023/01/19 03:28:47;;;;;;;7.07;1.15;;;;;;;;;;4784324;30;20412;-75
2023/01/19 03:31:21;;;;;;;7.25;0.90;;;;;;;;;;4784580;30;20063;-74
2023/01/19 03:33:59;;;;;;;8.88;1.10;;;;;;;;;;4783219;30;20059;-75
2023/01/19 03:36:36;;;;;;;8.70;1.75;;;;;;;;;;4784104;30;20443;-74
2023/01/19 03:39:09;;;;;;;7.38;1.13;;;;;;;;;;4783768;30;20052;-74
2023/01/19 03:41:44;;;;;;;7.30;1.20;;;;;;;;;;4783697;29;20515;-75
2023/01/19 03:44:15;;;;;;;8.85;0.98;;;;;;;;;;4783453;29;20162;-74
2023/01/19 03:46:49;;;;;;;4.22;1.10;;;;;;;;;;4783846;30;20508;-76
2023/01/19 03:49:20;;;;;;;8.48;1.40;;;;;;;;;;4783976;30;20059;-77
2023/01/19 03:51:50;;;;;;;6.03;1.48;;;;;;;;;;4783695;30;20492;-76
2023/01/19 03:54:21;;;;;;;5.95;1.20;;;;;;;;;;4783674;30;20055;-75
2023/01/19 03:56:51;;;;;;;6.30;0.80;;;;;;;;;;4783669;29;20520;-74
2023/01/19 03:59:22;;;;;;;3.60;0.50;;;;;;;;;;4782591;30;20052;-76
2023/01/19 04:01:53;;;;;;;8.25;0.77;;;;;;;;;;4783333;30;20051;-76
2023/01/19 04:04:24;;;;;;;3.15;0.82;;;;;;;;;;4783878;30;20051;-75
2023/01/19 04:06:54;;;;;;;6.93;1.20;;;;;;;;;;4783545;30;20051;-76
2023/01/19 04:09:26;;;;;;;5.32;0.80;;;;;;;;;;4783601;30;20047;-75
2023/01/19 04:11:56;;;;;;;3.45;1.00;;;;;;;;;;4783212;30;20059;-75
2023/01/19 04:14:32;;;;;;;4.70;0.90;;;;;;;;;;4783315;30;20066;-75
2023/01/19 04:17:02;;;;;;;6.40;0.70;;;;;;;;;;4782134;29;20047;-75
2023/01/19 04:19:32;;;;;;;3.47;0.70;;;;;;;;;;4782786;29;20051;-76
2023/01/19 04:22:03;;;;;;;7.25;1.10;;;;;;;;;;4781161;30;20062;-76
2023/01/19 04:24:34;;;;;;;2.83;0.73;;;;;;;;;;4783250;29;20055;-76
2023/01/19 04:27:31;;;;;;;2.47;0.70;;;;;;;;;;4782926;30;20052;-76
2023/01/19 04:30:02;;;;;;;5.93;0.60;;;;;;;;;;4784010;30;20054;-75
2023/01/19 04:32:33;;;;;;;6.00;0.90;;;;;;;;;;4783543;30;20055;-75
2023/01/19 04:35:04;;;;;;;3.53;0.93;;;;;;;;;;4782132;30;20419;-76
2023/01/19 04:37:34;;;;;;;5.18;0.68;;;;;;;;;;4783285;29;20058;-79
2023/01/19 04:40:05;;;;;;;4.60;0.90;;;;;;;;;;4782844;30;20048;-75
2023/01/19 04:42:36;;;;;;;5.00;1.33;;;;;;;;;;4782730;30;20055;-76
2023/01/19 04:45:08;;;;;;;7.40;1.17;;;;;;;;;;4782960;30;20078;-75
2023/01/19 04:47:38;;;;;;;3.28;0.63;;;;;;;;;;4782942;30;20059;-76
2023/01/19 04:50:10;;;;;;;4.60;0.63;;;;;;;;;;4782456;29;20055;-75
2023/01/19 04:52:40;;;;;;;10.40;1.10;;;;;;;;;;4783271;30;20055;-76
2023/01/19 04:55:11;;;;;;;5.25;1.13;;;;;;;;;;4782974;30;20526;-76
2023/01/19 04:57:43;;;;;;;5.80;0.95;;;;;;;;;;4782062;30;20054;-76
2023/01/19 05:00:14;;;;;;;5.00;1.15;;;;;;;;;;4782999;30;20059;-76
2023/01/19 05:02:45;;;;;;;5.93;1.00;;;;;;;;;;4782333;30;20047;-76
2023/01/19 05:05:15;;;;;;;5.47;0.65;;;;;;;;;;4781296;30;20051;-76
2023/01/19 05:07:46;;;;;;;8.75;0.93;;;;;;;;;;4782696;30;20504;-75
2023/01/19 05:10:16;;;;;;;4.15;0.70;;;;;;;;;;4783349;30;20416;-74
2023/01/19 05:12:46;;;;;;;5.60;0.80;;;;;;;;;;4782908;30;20062;-76
2023/01/19 05:15:18;;;;;;;4.88;0.90;;;;;;;;;;4782249;30;20407;-76
2023/01/19 05:17:48;;;;;;;6.55;0.82;;;;;;;;;;4782653;30;20062;-75
2023/01/19 05:20:18;;;;;;;4.55;0.80;;;;;;;;;;4780773;30;20071;-75
2023/01/19 05:22:50;;;;;;;5.18;0.90;;;;;;;;;;4781689;29;20063;-76
2023/01/19 05:25:22;;;;;;;4.82;0.98;;;;;;;;;;4782263;29;20063;-75
2023/01/19 05:27:53;;;;;;;4.32;0.77;;;;;;;;;;4782817;30;20411;-75
2023/01/19 05:30:22;;;;;;;2.25;0.50;;;;;;;;;;4782663;30;20055;-74
2023/01/19 05:32:53;;;;;;;6.25;1.10;;;;;;;;;;4781838;30;20058;-78
2023/01/19 05:35:23;;;;;;;2.90;0.95;;;;;;;;;;4782143;30;20055;-76
2023/01/19 05:38:04;;;;;;;5.13;0.68;;;;;;;;;;4782019;30;20047;-76
2023/01/19 05:40:34;;;;;;;3.90;1.30;;;;;;;;;;4782062;29;20424;-75
2023/01/19 05:43:04;;;;;;;3.22;0.80;;;;;;;;;;4780716;29;20055;-74
2023/01/19 05:45:34;;;;;;;3.20;0.88;;;;;;;;;;4781784;30;20063;-75
2023/01/19 05:48:05;;;;;;;6.00;1.17;;;;;;;;;;4781937;29;20047;-75
2023/01/19 05:50:37;;;;;;;3.83;1.08;;;;;;;;;;4780653;30;20055;-75
2023/01/19 05:53:08;;;;;;;7.70;0.82;;;;;;;;;;4781550;30;20066;-76
2023/01/19 05:55:39;;;;;;;2.58;0.70;;;;;;;;;;4780593;30;20480;-76
2023/01/19 05:58:08;;;;;;;8.80;1.33;;;;;;;;;;4782454;29;20055;-76
2023/01/19 06:00:39;;;;;;;3.65;0.60;;;;;;;;;;4781686;30;20070;-75
2023/01/19 06:03:10;;;;;;;8.57;1.00;;;;;;;;;;4781912;30;20416;-76
2023/01/19 06:05:41;;;;;;;4.95;0.88;;;;;;;;;;4781933;30;20599;-75
2023/01/19 06:08:12;;;;;;;9.40;0.70;;;;;;;;;;4781792;30;20062;-75
2023/01/19 06:10:42;;;;;;;7.68;1.10;;;;;;;;;;4781862;30;20066;-76
2023/01/19 06:13:13;;;;;;;3.72;0.90;;;;;;;;;;4781207;30;20074;-75
2023/01/19 06:15:44;;;;;;;5.03;1.00;;;;;;;;;;4781081;30;20059;-75
2023/01/19 06:18:15;;;;;;;3.78;0.82;;;;;;;;;;4781954;30;20078;-75
2023/01/19 06:20:45;;;;;;;3.60;0.68;;;;;;;;;;4781767;30;20043;-75
2023/01/19 06:23:15;;;;;;;5.47;1.08;;;;;;;;;;4780436;29;20055;-75
2023/01/19 06:25:46;;;;;;;6.82;1.02;;;;;;;;;;4782296;30;20055;-75
2023/01/19 06:28:17;;;;;;;7.65;0.73;;;;;;;;;;4781820;30;20055;-75
2023/01/19 06:30:57;;;;;;;4.70;1.35;;;;;;;;;;4781675;30;20407;-75
2023/01/19 06:33:27;;;;;;;3.58;1.00;;;;;;;;;;4781684;30;20063;-76
2023/01/19 06:35:58;;;;;;;5.15;0.93;;;;;;;;;;4781782;30;20055;-76
2023/01/19 06:38:29;;;;;;;4.70;0.80;;;;;;;;;;4781396;30;20059;-76
2023/01/19 06:41:03;;;;;;;7.72;1.40;;;;;;;;;;4780546;30;20063;-76
2023/01/19 06:43:35;;;;;;;5.70;0.90;;;;;;;;;;4782085;29;20051;-75
2023/01/19 06:46:05;;;;;;;7.30;0.90;;;;;;;;;;4784918;30;20050;-76
2023/01/19 06:48:36;;;;;;;5.15;0.98;;;;;;;;;;4784407;30;20078;-76
2023/01/19 06:51:07;;;;;;;7.13;1.13;;;;;;;;;;4784765;30;20055;-76
2023/01/19 06:53:38;;;;;;;4.47;0.70;;;;;;;;;;4784977;30;20098;-76
2023/01/19 06:56:08;;;;;;;6.70;1.17;;;;;;;;;;4784747;30;20058;-76
2023/01/19 06:58:41;;;;;;;7.70;0.90;;;;;;;;;;4784016;30;20059;-75
2023/01/19 07:01:11;;;;;;;10.30;1.73;;;;;;;;;;4785395;30;20048;-75
2023/01/19 07:03:41;;;;;;;8.10;1.48;;;;;;;;;;4784591;29;20063;-76
2023/01/19 07:06:15;;;;;;;6.55;0.82;;;;;;;;;;4784212;30;20530;-76
2023/01/19 07:08:45;;;;;;;2.33;1.02;;;;;;;;;;4784517;29;20066;-75
2023/01/19 07:11:15;;;;;;;6.18;1.23;;;;;;;;;;4784582;30;20047;-75
2023/01/19 07:13:58;;;;;;;8.35;1.00;;;;;;;;;;4784539;30;20598;-76
2023/01/19 07:16:28;;;;;;;6.70;1.05;;;;;;;;;;4784485;30;20412;-76
2023/01/19 07:18:59;;;;;;;4.40;0.90;;;;;;;;;;4784833;29;20051;-75
2023/01/19 07:21:29;;;;;;;3.35;0.80;;;;;;;;;;4784922;29;20058;-75
2023/01/19 07:23:59;;;;;;;4.45;1.10;;;;;;;;;;4768533;30;20055;-75
2023/01/19 07:26:29;;;;;;;5.65;1.25;;;;;;;;;;4784083;29;20070;-75
2023/01/19 07:29:00;;;;;;;6.20;1.40;;;;;;;;;;4784170;30;20067;-77
2023/01/19 07:31:32;;;;;;;5.80;1.25;;;;;;;;;;4783980;30;20059;-75
2023/01/19 07:34:02;;;;;;;4.00;1.02;;;;;;;;;;4784186;29;20047;-75
2023/01/19 07:36:32;;;;;;;2.53;0.80;;;;;;;;;;4784443;29;20070;-76
2023/01/19 07:39:02;;;;;;;5.95;0.95;;;;;;;;;;4783439;29;20055;-76
2023/01/19 07:41:33;;;;;;;5.35;1.17;;;;;;;;;;4784587;30;20059;-76
2023/01/19 07:44:07;;;;;;;8.02;1.50;;;;;;;;;;4784587;30;20059;-75
2023/01/19 07:46:38;;;;;;;5.35;1.40;;;;;;;;;;4783920;30;20515;-75
2023/01/19 07:49:09;;;;;;;5.05;1.00;;;;;;;;;;4784182;30;20058;-74
2023/01/19 07:51:39;;;;;;;7.05;1.08;;;;;;;;;;4783993;30;20054;-74
2023/01/19 07:54:11;;;;;;;6.38;1.27;;;;;;;;;;4784258;29;20047;-75
2023/01/19 07:56:42;;;;;;;6.18;1.23;;;;;;;;;;4783613;30;20059;-75
2023/01/19 07:59:13;;;;;;;4.85;1.40;;;;;;;;;;4782460;30;20051;-75
2023/01/19 08:01:43;;;;;;;6.95;1.10;;;;;;;;;;4783959;30;20048;-75
2023/01/19 08:04:13;;;;;;;6.40;1.00;;;;;;;;;;4783738;30;20051;-76
2023/01/19 08:06:44;;;;;;;4.22;1.20;;;;;;;;;;4783853;30;20062;-75
2023/01/19 08:09:15;;;;;;;7.10;1.48;;;;;;;;;;4783768;30;20423;-75
2023/01/19 08:11:45;;;;;;;7.70;1.05;;;;;;;;;;4782041;30;20055;-75
2023/01/19 08:14:15;;;;;;;4.70;1.15;;;;;;;;;;4783939;30;20059;-76
2023/01/19 08:16:45;;;;;;;11.63;1.40;;;;;;;;;;4783427;29;20055;-75
2023/01/19 08:19:18;;;;;;;9.23;1.00;;;;;;;;;;4783880;30;20043;-75
2023/01/19 08:21:48;;;;;;;5.72;1.00;;;;;;;;;;4784028;30;20073;-75
2023/01/19 08:24:21;;;;;;;8.85;1.10;;;;;;;;;;4782977;29;20063;-75
2023/01/19 08:26:58;;;;;;;4.72;1.30;;;;;;;;;;4783958;30;20055;-75
2023/01/19 08:29:30;;;;;;;8.45;1.33;;;;;;;;;;4783156;30;20081;-75
2023/01/19 08:32:01;;;;;;;11.32;1.65;;;;;;;;;;4783267;30;20066;-76
2023/01/19 08:34:33;;;;;;;12.88;1.10;;;;;;;;;;4783346;30;20055;-76
2023/01/19 08:37:04;;;;;;;7.75;1.17;;;;;;;;;;4783434;30;20055;-75
2023/01/19 08:39:33;;;;;;;6.68;1.40;;;;;;;;;;4783434;30;20066;-76
2023/01/19 08:42:04;;;;;;;6.07;1.30;;;;;;;;;;4783600;30;20592;-75
2023/01/19 08:44:34;;;;;;;4.40;0.95;;;;;;;;;;4783703;30;20070;-76
2023/01/19 08:47:17;;;;;;;6.85;1.05;;;;;;;;;;4783807;30;20526;-76
2023/01/19 08:49:47;;;;;;;13.80;1.63;;;;;;;;;;4783672;30;20055;-75
2023/01/19 08:52:17;;;;;;;9.18;1.10;;;;;;;;;;4783743;30;20070;-76
2023/01/19 08:54:48;;;;;;;4.90;0.90;;;;;;;;;;4783273;29;20052;-77
2023/01/19 08:57:18;;;;;;;3.35;1.10;;;;;;;;;;4782961;30;20082;-76
2023/01/19 08:59:48;;;;;;;5.38;1.08;;;;;;;;;;4782671;30;20058;-76
2023/01/19 09:02:18;;;;;;;9.80;1.20;;;;;;;;;;4781253;30;20047;-77
2023/01/19 09:04:50;;;;;;;7.88;1.20;;;;;;;;;;4782418;29;20047;-77
2023/01/19 09:07:21;;;;;;;4.43;0.75;;;;;;;;;;4782175;29;20055;-76
2023/01/19 09:09:51;;;;;;;5.68;0.85;;;;;;;;;;4781403;29;20058;-76
2023/01/19 09:12:22;;;;;;;9.75;1.00;;;;;;;;;;4782531;30;20047;-76
2023/01/19 09:14:52;;;;;;;9.60;1.30;;;;;;;;;;4781133;30;20059;-77
2023/01/19 09:17:22;;;;;;;9.68;1.20;;;;;;;;;;4781387;29;20047;-77
2023/01/19 09:19:53;;;;;;;11.07;1.27;;;;;;;;;;4782687;30;20051;-76
2023/01/19 09:22:23;;;;;;;5.53;0.93;;;;;;;;;;4782214;30;20074;-75
2023/01/19 09:24:53;;;;;;;9.85;1.50;;;;;;;;;;4780747;29;20914;-78
2023/01/19 09:27:24;;;;;;;7.97;0.90;;;;;;;;;;4782206;30;20476;-77
2023/01/19 09:29:55;;;;;;;3.67;0.80;;;;;;;;;;4782180;30;20051;-83
2023/01/19 09:32:26;;;;;;;5.50;0.82;;;;;;;;;;4781965;30;20047;-76
2023/01/19 09:34:56;;;;;;;9.63;0.93;;;;;;;;;;4781932;29;20055;-77
2023/01/19 09:37:27;;;;;;;10.32;1.50;;;;;;;;;;4782181;30;20543;-77
2023/01/19 09:39:57;;;;;;;4.43;1.25;;;;;;;;;;4781698;29;20051;-76
2023/01/19 09:42:35;;;;;;;6.78;0.90;;;;;;;;;;4782096;30;20062;-76
2023/01/19 09:45:13;;;;;;;8.38;1.00;;;;;;;;;;4782189;30;20059;-76
2023/01/19 09:47:47;;;;;;;7.20;0.90;;;;;;;;;;4782224;30;20055;-76
2023/01/19 09:50:31;;;;;;;6.38;1.10;;;;;;;;;;4782319;30;20051;-76
2023/01/19 09:53:18;;;;;;;6.25;0.60;;;;;;;;;;4782224;30;20055;-77
2023/01/19 09:55:48;;;;;;;8.50;0.73;;;;;;;;;;4781846;30;20492;-77
2023/01/19 09:58:20;;;;;;;3.78;0.80;;;;;;;;;;4782061;30;20062;-80
2023/01/19 10:00:56;;;;;;;13.73;1.30;;;;;;;;;;4781928;30;20062;-76
2023/01/19 10:03:29;;;;;;;6.75;0.90;;;;;;;;;;4781948;30;20055;-79
2023/01/19 10:06:03;;;;;;;4.82;0.77;;;;;;;;;;4782107;30;20059;-76
2023/01/19 10:09:11;;;;;;;7.57;1.17;;;;;;;;;;4782011;30;20416;-75
2023/01/19 10:11:50;;;;;;;6.95;1.00;;;;;;;;;;4781634;30;20062;-76
2023/01/19 10:14:42;;;;;;;5.32;0.77;;;;;;;;;;4781532;30;20519;-76
2023/01/19 10:17:33;;;;;;;2.20;0.50;;;;;;;;;;4782292;30;20055;-77
2023/01/19 10:20:08;;;;;;;5.13;1.63;;;;;;;;;;4785828;30;20062;-77
2023/01/19 10:22:42;;;;;;;2.92;0.80;;;;;;;;;;4800490;29;20051;-77
2023/01/19 10:25:22;;;;;;;2.80;0.68;;;;;;;;;;4802736;29;20059;-77
2023/01/19 10:27:52;;;;;;;6.20;0.70;;;;;;;;;;4803195;29;20065;-77
2023/01/19 10:30:26;;;;;;;4.95;0.98;;;;;;;;;;4803084;29;20448;-78
2023/01/19 10:32:59;;;;;;;5.07;0.93;;;;;;;;;;4802999;29;20065;-76
2023/01/19 10:35:30;;;;;;;7.32;1.00;;;;;;;;;;4803226;29;20062;-78
2023/01/19 10:38:01;;;;;;;8.55;0.90;;;;;;;;;;4802709;29;20050;-77
2023/01/19 10:40:33;;;;;;;11.77;5.32;;;;;;;;;;4803191;29;20055;-76
2023/01/19 10:43:43;;;;;;;3.95;0.82;;;;;;;;;;4803197;29;20054;-77
2023/01/19 10:46:42;;;;;;;3.90;0.90;;;;;;;;;;4803256;29;20046;-79
2023/01/19 10:49:28;;;;;;;9.52;1.08;;;;;;;;;;4801894;29;20059;-75
2023/01/19 10:52:01;;;;;;;9.60;0.73;;;;;;;;;;4803062;29;20057;-76
2023/01/19 10:54:35;;;;;;;11.15;1.13;;;;;;;;;;4802434;29;20062;-77
2023/01/19 10:57:09;;;;;;;6.13;1.83;;;;;;;;;;4803028;29;20062;-77
2023/01/19 10:59:49;;;;;;;4.70;0.70;;;;;;;;;;4802462;29;20055;-77
2023/01/19 11:02:27;;;;;;;4.65;0.70;;;;;;;;;;4802586;29;20058;-77
2023/01/19 11:05:01;;;;;;;3.65;0.70;;;;;;;;;;4802692;29;20114;-76
2023/01/19 11:07:33;;;;;;;4.28;0.70;;;;;;;;;;4802978;29;20050;-76
2023/01/19 11:10:15;;;;;;;8.32;1.85;;;;;;;;;;4802169;29;20063;-76
2023/01/19 11:13:11;;;;;;;5.50;0.80;;;;;;;;;;4802319;29;20051;-75
2023/01/19 11:15:48;;;;;;;5.38;0.75;;;;;;;;;;4802279;29;20530;-76
2023/01/19 11:18:35;;;;;;;4.35;0.77;;;;;;;;;;4801471;29;20065;-75
2023/01/19 11:21:16;;;;;;;2.28;0.47;;;;;;;;;;4801397;29;20062;-74
2023/01/19 11:23:54;;;;;;;1.83;0.40;;;;;;;;;;4802115;29;20063;-76
2023/01/19 11:26:30;;;;;;;4.97;0.57;;;;;;;;;;4802223;29;20055;-79
2023/01/19 11:29:04;;;;;;;7.25;1.13;;;;;;;;;;4802613;29;20050;-76
2023/01/19 11:31:35;;;;;;;8.15;0.95;;;;;;;;;;4801447;29;20525;-75
2023/01/19 11:34:32;;;;;;;0.77;0.40;;;;;;;;;;4798603;29;20077;-75
2023/01/19 11:37:19;;;;;;;2.13;0.47;;;;;;;;;;4800843;29;20061;-75
2023/01/19 11:39:57;;;;;;;2.60;0.50;;;;;;;;;;4801920;29;20059;-75
2023/01/19 11:42:32;;;;;;;3.67;0.63;;;;;;;;;;4802289;29;20051;-78
2023/01/19 11:45:05;;;;;;;2.30;0.40;;;;;;;;;;4801788;29;20058;-76
2023/01/19 11:47:45;;;;;;;2.65;0.70;;;;;;;;;;4801050;29;20423;-79
2023/01/19 11:50:23;;;;;;;5.63;0.60;;;;;;;;;;4802873;29;20078;-77
2023/01/19 11:53:05;;;;;;;2.97;0.50;;;;;;;;;;4800948;29;20542;-79
2023/01/19 11:56:06;;;;;;;2.65;0.73;;;;;;;;;;4802292;29;20059;-78
2023/01/19 11:58:43;;;;;;;3.78;0.40;;;;;;;;;;4800317;29;20069;-78
2023/01/19 12:01:34;;;;;;;3.15;0.47;;;;;;;;;;4801756;29;20050;-77
2023/01/19 12:04:13;;;;;;;4.95;0.65;;;;;;;;;;4801387;29;20082;-76
2023/01/19 12:06:54;;;;;;;1.35;0.70;;;;;;;;;;4801906;29;20058;-76
2023/01/19 12:09:26;;;;;;;3.65;0.52;;;;;;;;;;4802128;29;20054;-79
2023/01/19 12:12:03;;;;;;;6.18;0.80;;;;;;;;;;4801027;29;20059;-76
2023/01/19 12:15:07;;;;;;;3.10;0.40;;;;;;;;;;4802089;29;20500;-78
2023/01/19 12:17:53;;;;;;;1.73;0.75;;;;;;;;;;4800978;29;20050;-76
2023/01/19 12:20:37;;;;;;;4.13;0.70;;;;;;;;;;4800957;29;20062;-75
2023/01/19 12:23:14;;;;;;;1.88;0.50;;;;;;;;;;4801971;29;20054;-75
2023/01/19 12:25:52;;;;;;;1.75;0.50;;;;;;;;;;4801218;29;20051;-76
2023/01/19 12:28:31;;;;;;;2.20;0.52;;;;;;;;;;4801493;29;20055;-78
2023/01/19 12:31:03;;;;;;;4.95;0.57;;;;;;;;;;4801320;29;20043;-76
2023/01/19 12:33:40;;;;;;;6.57;0.40;;;;;;;;;;4801344;29;20051;-81
2023/01/19 12:36:32;;;;;;;15.30;0.90;;;;;;;;;;4801068;29;20058;-75
2023/01/19 12:39:13;;;;;;;2.88;0.40;;;;;;;;;;4799568;29;20061;-76
2023/01/19 12:41:45;;;;;;;0.93;0.55;;;;;;;;;;4800331;29;20766;-80
2023/01/19 12:44:23;;;;;;;1.70;0.40;;;;;;;;;;4800842;29;20063;-74
2023/01/19 12:47:19;;;;;;;1.50;0.32;;;;;;;;;;4801947;29;20051;-77
2023/01/19 12:49:54;;;;;;;1.38;0.28;;;;;;;;;;4801325;29;20062;-77
2023/01/19 12:52:32;;;;;;;2.10;0.50;;;;;;;;;;4800918;29;20042;-76
2023/01/19 12:55:13;;;;;;;2.78;0.55;;;;;;;;;;4801181;29;20738;-77
2023/01/19 12:57:55;;;;;;;1.65;0.43;;;;;;;;;;4800697;29;20070;-78
2023/01/19 13:00:29;;;;;;;0.80;0.30;;;;;;;;;;4800881;29;20070;-75
2023/01/19 13:03:04;;;;;;;1.42;0.38;;;;;;;;;;4800340;29;21173;-77
2023/01/19 13:05:40;;;;;;;1.20;0.30;;;;;;;;;;4800707;29;20073;-79
2023/01/19 13:08:11;;;;;;;4.53;0.40;;;;;;;;;;4800530;29;20094;-76
2023/01/19 13:11:00;;;;;;;4.43;0.60;;;;;;;;;;4800788;29;20050;-77
2023/01/19 13:13:49;;;;;;;3.65;0.68;;;;;;;;;;4801138;29;20050;-77
2023/01/19 13:16:21;;;;;;;1.52;0.38;;;;;;;;;;4800678;29;20074;-76
2023/01/19 13:18:52;;;;;;;4.55;0.80;;;;;;;;;;4800304;29;20047;-77
2023/01/19 13:21:32;;;;;;;3.63;0.60;;;;;;;;;;4800449;29;20057;-75
2023/01/19 13:24:05;;;;;;;3.15;0.60;;;;;;;;;;4800335;29;20063;-77
2023/01/19 13:26:53;;;;;;;1.17;0.20;;;;;;;;;;4800146;29;20061;-78
2023/01/19 13:29:39;;;;;;;1.35;0.40;;;;;;;;;;4800240;29;20054;-77
2023/01/19 13:32:20;;;;;;;1.05;0.20;;;;;;;;;;4800234;29;20502;-76
2023/01/19 13:35:00;;;;;;;2.33;0.40;;;;;;;;;;4800220;29;20047;-78
2023/01/19 13:37:49;;;;;;;1.42;0.40;;;;;;;;;;4800420;29;20059;-78
2023/01/19 13:40:30;;;;;;;3.83;0.47;;;;;;;;;;4798466;29;20073;-77
2023/01/19 13:43:01;;;;;;;1.13;0.50;;;;;;;;;;4800290;29;20440;-75
2023/01/19 13:45:36;;;;;;;2.28;0.40;;;;;;;;;;4799548;29;20046;-77
2023/01/19 13:48:16;;;;;;;1.88;0.50;;;;;;;;;;4799978;29;20419;-77
2023/01/19 13:51:15;;;;;;;1.27;0.32;;;;;;;;;;4798005;29;20057;-78
2023/01/19 13:53:57;;;;;;;2.45;0.40;;;;;;;;;;4799532;29;20073;-79
2023/01/19 13:56:27;;;;;;;;;;;;;;;;;;4800383;29;20047;-77
2023/01/19 13:59:09;;;;;;;2.70;0.70;;;;;;;;;;4799946;29;19933;-77
2023/01/19 14:01:42;;;;;;;0.93;0.20;;;;;;;;;;4799460;29;20051;-80
2023/01/19 14:04:34;;;;;;;1.88;0.22;;;;;;;;;;4799389;29;20503;-77
2023/01/19 14:07:24;;;;;;;1.83;0.50;;;;;;;;;;4800046;29;20054;-78
2023/01/19 14:10:10;;;;;;;3.28;0.38;;;;;;;;;;4799987;29;20051;-75
2023/01/19 14:12:40;;;;;;;1.95;0.30;;;;;;;;;;4799647;29;20427;-78
2023/01/19 14:15:28;;;;;;;2.17;0.28;;;;;;;;;;4800014;29;20062;-78
2023/01/19 14:18:30;;;;;;;1.15;0.30;;;;;;;;;;4799773;29;20058;-75
2023/01/19 14:21:10;;;;;;;1.70;0.40;;;;;;;;;;4799425;29;20443;-76
2023/01/19 14:23:43;;;;;;;4.82;0.35;;;;;;;;;;4799027;29;20055;-77
2023/01/19 14:26:40;;;;;;;1.23;0.38;;;;;;;;;;4800004;29;20122;-81
2023/01/19 14:29:29;;;;;;;6.13;0.57;;;;;;;;;;4799651;29;20055;-76
2023/01/19 14:32:26;;;;;;;0.93;0.30;;;;;;;;;;4799651;29;20055;-78
2023/01/19 14:35:02;;;;;;;1.75;0.32;;;;;;;;;;4800035;29;20057;-77
2023/01/19 14:37:36;;;;;;;1.52;0.47;;;;;;;;;;4800141;29;20051;-78
2023/01/19 14:40:13;;;;;;;4.78;0.70;;;;;;;;;;4799827;29;20475;-76
2023/01/19 14:42:51;;;;;;;9.77;0.60;;;;;;;;;;4799914;29;20054;-77
2023/01/19 14:45:35;;;;;;;2.92;0.50;;;;;;;;;;4799957;29;20050;-77
2023/01/19 14:48:21;;;;;;;3.13;0.30;;;;;;;;;;4799599;29;20055;-77
2023/01/19 14:51:00;;;;;;;0.75;0.22;;;;;;;;;;4798957;29;20047;-77
2023/01/19 14:53:38;;;;;;;1.83;0.40;;;;;;;;;;4799199;29;20074;-76
2023/01/19 14:56:10;;;;;;;2.85;0.60;;;;;;;;;;4799462;29;20051;-79
2023/01/19 14:58:45;;;;;;;1.63;0.32;;;;;;;;;;4799919;29;20070;-78
2023/01/19 15:01:17;;;;;;;0.65;0.20;;;;;;;;;;4799633;29;20063;-76
2023/01/19 15:03:48;;;;;;;4.35;0.40;;;;;;;;;;4799505;29;20058;-79
2023/01/19 15:06:20;;;;;;;2.40;0.32;;;;;;;;;;4802251;29;20065;-78
2023/01/19 15:08:54;;;;;;;1.10;0.30;;;;;;;;;;4803585;29;20515;-76
2023/01/19 15:11:33;;;;;;;2.38;0.52;;;;;;;;;;4803903;29;20050;-76
2023/01/19 15:14:04;;;;;;;3.08;0.32;;;;;;;;;;4801493;29;20066;-79
2023/01/19 15:16:36;;;;;;;1.92;0.40;;;;;;;;;;4802475;29;20054;-81
2023/01/19 15:19:15;;;;;;;1.63;0.50;;;;;;;;;;4801705;29;20404;-76
2023/01/19 15:21:46;;;;;;;1.70;0.30;;;;;;;;;;4802975;29;20085;-77
2023/01/19 15:24:16;;;;;;;6.03;0.70;;;;;;;;;;4802060;29;20059;-78
2023/01/19 15:26:47;;;;;;;2.65;0.50;;;;;;;;;;4802585;29;20407;-78
2023/01/19 15:29:25;;;;;;;1.60;0.40;;;;;;;;;;4802487;29;20081;-76
2023/01/19 15:31:56;;;;;;;1.48;0.40;;;;;;;;;;4802981;29;20399;-77
2023/01/19 15:34:26;;;;;;;1.60;0.47;;;;;;;;;;4801912;29;20050;-75
2023/01/19 15:36:58;;;;;;;0.70;0.22;;;;;;;;;;4802206;29;20519;-77
2023/01/19 15:39:29;;;;;;;2.55;0.30;;;;;;;;;;4802277;29;20057;-78
2023/01/19 15:41:59;;;;;;;0.40;0.13;;;;;;;;;;4802623;29;20582;-76